Martin, Kentucky
Current Conditions -  °F | °C
As of 10:15 PM on Saturday 20 Dec 2014 (Local Time) from KPBX Reporting Station
Overcast Overcast  
Wind Chill: 32°   Ceiling: 4500
Heat Index: 32°   Visibility: 10mi
Dew Point: 26°   Wind: 3mph
Humidity: 80%   Direction: 350°N
Pressure: 30.24"   Gusts: NA
Location:  37.57°N, 82.75°W
Report Text: KPBX 210315Z AUTO 35003KT 10SM OVC045 00/M03 A3024 RMK AO2 T00001031
Loading
Personal Weather Stations






























Interactive Weather Map New forecast layout! Learn more

10-Day Weather Forecast

Advertisements
Track Severe Weather on mobile